Terminal Aerodrome Forecast
Issued by NWS Miami, FL

Home | Current Version | Previous Version | Text Only | Print | Product List | Glossary On
Versions: 1 2 3 4 5 6 7 8 9 10 11 12 13 14 15 16 17 18 19 20 21 22 23 24 25 26 27 28 29 30 31 32 33 34 35 36 37 38 39 40 41 42 43 44 45 46
000
FTUS42 KMFL 201324 AAA
TAFPBI
TAF AMD
KPBI 201324Z 2013/2112 11014KT P6SM FEW015 SCT025 BKN050
      TEMPO 2013/2015 6SM -SHRA SCT015 BKN025
     FM201500 11016G26KT P6SM FEW025 SCT050
     FM210000 10014KT P6SM FEW025 SCT050=

USA.gov is the U.S. government's official web portal to all federal, state and local government web resources and services.